Time;durP1;ratioP1;P1;durP2;ratioP2;P2;SDS_P1;SDS_P2;PMS_P1;PMS_P2;Temp;Humidity;BMP_temperature;BMP_pressure;BME280_temperature;BME280_humidity;BME280_pressure;Samples;Min_cycle;Max_cycle;Signal;HPM_P1;HPM_P2
2023/06/10 00:00:59;;;;;;;10.20;7.35;;;;;;;18.75;76.48;99446.09;12254799;19;20010;-86
2023/06/10 00:05:01;;;;;;;10.68;7.68;;;;;;;18.70;75.93;99449.78;12251033;19;20082;-86
2023/06/10 00:09:04;;;;;;;9.33;7.37;;;;;;;18.68;75.92;99443.69;12246934;19;20023;-86
2023/06/10 00:13:11;;;;;;;9.95;7.13;;;;;;;18.68;75.30;99443.69;12256660;19;20010;-86
2023/06/10 00:17:15;;;;;;;11.60;7.90;;;;;;;18.65;75.31;99439.56;12264872;19;20021;-86
2023/06/10 00:21:17;;;;;;;9.82;7.60;;;;;;;18.63;74.62;99441.00;12261934;19;20003;-85
2023/06/10 00:25:19;;;;;;;8.88;6.95;;;;;;;18.64;74.48;99442.66;12267251;19;20013;-86
2023/06/10 00:29:21;;;;;;;10.93;7.77;;;;;;;18.61;75.04;99443.28;12262565;19;20011;-86
2023/06/10 00:33:22;;;;;;;10.45;7.28;;;;;;;18.56;75.53;99446.16;12256811;19;20014;-87
2023/06/10 00:37:24;;;;;;;12.40;7.53;;;;;;;18.49;75.57;99443.81;12259483;19;20803;-86
2023/06/10 00:41:26;;;;;;;8.17;6.87;;;;;;;18.47;74.41;99446.06;12250055;19;20743;-87
2023/06/10 00:45:28;;;;;;;12.20;7.50;;;;;;;18.48;74.74;99444.13;12251592;19;20022;-86
2023/06/10 00:49:32;;;;;;;11.90;7.90;;;;;;;18.42;76.49;99441.44;12250964;19;20020;-86
2023/06/10 00:53:39;;;;;;;10.80;7.07;;;;;;;18.38;77.43;99445.16;12254327;19;20015;-84
2023/06/10 00:57:44;;;;;;;12.95;8.02;;;;;;;18.33;76.09;99448.88;12254393;19;20606;-85
2023/06/10 01:01:49;;;;;;;11.05;7.97;;;;;;;18.34;76.19;99453.31;12244370;19;20007;-85
2023/06/10 01:06:06;;;;;;;9.35;7.38;;;;;;;18.33;77.82;99450.84;12248507;19;20022;-86
2023/06/10 01:10:16;;;;;;;12.23;8.15;;;;;;;18.27;79.81;99452.09;12248028;19;20045;-86
2023/06/10 01:14:18;;;;;;;12.32;8.20;;;;;;;18.17;79.21;99448.38;12250644;19;20014;-86
2023/06/10 01:18:21;;;;;;;9.70;7.80;;;;;;;18.20;79.55;99456.13;12247078;19;20018;-84
2023/06/10 01:22:36;;;;;;;12.10;7.57;;;;;;;18.16;80.03;99445.88;12236592;19;20015;-86
2023/06/10 01:26:41;;;;;;;10.35;8.40;;;;;;;18.09;80.22;99439.91;12247957;19;20014;-86
2023/06/10 01:31:13;;;;;;;10.30;7.90;;;;;;;18.10;80.97;99456.31;12256362;19;20011;-86
2023/06/10 01:35:19;;;;;;;13.13;8.27;;;;;;;18.05;81.44;99445.25;12247287;19;20716;-86
2023/06/10 01:39:24;;;;;;;11.43;8.35;;;;;;;17.98;83.83;99447.63;12244910;19;20013;-85
2023/06/10 01:43:26;;;;;;;18.88;9.13;;;;;;;17.91;84.34;99448.03;12244179;19;20054;-86
2023/06/10 01:47:28;;;;;;;9.15;7.30;;;;;;;17.83;84.23;99451.53;12246630;19;20017;-85
2023/06/10 01:51:31;;;;;;;11.27;8.57;;;;;;;17.82;85.38;99449.03;12248786;19;20010;-86
2023/06/10 01:55:34;;;;;;;12.75;8.15;;;;;;;17.76;86.35;99451.91;12244463;19;20015;-85
2023/06/10 01:59:37;;;;;;;10.45;7.40;;;;;;;17.69;86.47;99459.00;12244850;19;20011;-87
2023/06/10 02:03:39;;;;;;;11.02;7.93;;;;;;;17.64;86.63;99459.91;12245761;19;20010;-85
2023/06/10 02:07:41;;;;;;;9.70;7.22;;;;;;;17.65;86.96;99449.59;12248234;19;20006;-85
2023/06/10 02:11:42;;;;;;;9.80;7.97;;;;;;;17.68;86.58;99463.75;12248111;19;20026;-86
2023/06/10 02:15:44;;;;;;;13.30;8.75;;;;;;;17.70;87.66;99458.69;12249395;19;20471;-86
2023/06/10 02:19:52;;;;;;;12.90;8.57;;;;;;;17.64;88.13;99454.34;12249947;19;20031;-86
2023/06/10 02:23:55;;;;;;;9.20;7.60;;;;;;;17.58;88.56;99463.94;12251115;19;20010;-86
2023/06/10 02:27:57;;;;;;;12.95;8.55;;;;;;;17.55;88.32;99461.75;12246043;19;20003;-86
2023/06/10 02:31:59;;;;;;;10.13;8.17;;;;;;;17.53;86.86;99452.88;12245137;19;20085;-85
2023/06/10 02:36:01;;;;;;;13.05;8.70;;;;;;;17.54;87.22;99460.91;12254305;19;20025;-86
2023/06/10 02:40:03;;;;;;;11.57;8.02;;;;;;;17.52;87.15;99462.38;12257340;19;20086;-86
2023/06/10 02:44:06;;;;;;;12.68;8.02;;;;;;;17.47;87.19;99462.44;12261855;19;20078;-86
2023/06/10 02:48:08;;;;;;;10.30;7.90;;;;;;;17.44;87.18;99454.69;12260955;19;20015;-86
2023/06/10 02:52:11;;;;;;;12.93;8.65;;;;;;;17.36;88.02;99458.97;12263741;19;20019;-86
2023/06/10 02:56:16;;;;;;;16.30;8.10;;;;;;;17.29;88.05;99464.94;12259194;19;20463;-85
2023/06/10 03:00:21;;;;;;;13.10;8.55;;;;;;;17.25;89.16;99463.91;12261103;19;20010;-85
2023/06/10 03:04:25;;;;;;;11.45;8.85;;;;;;;17.18;89.85;99473.75;12262372;19;20010;-86
2023/06/10 03:08:34;;;;;;;11.93;9.20;;;;;;;17.11;89.76;99478.88;12261058;19;20009;-86
2023/06/10 03:12:41;;;;;;;12.73;8.15;;;;;;;17.07;90.09;99473.06;12263724;19;20070;-85
2023/06/10 03:16:44;;;;;;;12.30;8.87;;;;;;;17.06;89.98;99474.22;12261584;19;20014;-85
2023/06/10 03:20:47;;;;;;;12.80;8.68;;;;;;;17.02;91.28;99476.78;12266240;19;21111;-85
2023/06/10 03:24:51;;;;;;;10.82;8.27;;;;;;;17.02;91.07;99475.94;12263604;19;20018;-85
2023/06/10 03:28:53;;;;;;;14.00;9.18;;;;;;;16.97;91.46;99478.81;12262367;19;20008;-85
2023/06/10 03:32:58;;;;;;;12.95;9.60;;;;;;;16.89;92.95;99485.03;12267302;19;20015;-86
2023/06/10 03:37:02;;;;;;;12.90;9.40;;;;;;;16.79;93.57;99492.41;12283070;19;20016;-84
2023/06/10 03:41:05;;;;;;;14.10;10.52;;;;;;;16.72;93.63;99477.19;12296415;19;20003;-84
2023/06/10 03:45:08;;;;;;;13.60;11.05;;;;;;;16.67;94.16;99486.41;12293618;19;20022;-84
2023/06/10 03:49:11;;;;;;;11.73;9.90;;;;;;;16.61;94.68;99482.03;12294267;19;20017;-83
2023/06/10 03:53:13;;;;;;;12.52;9.23;;;;;;;16.51;95.71;99487.72;12292261;19;20046;-83
2023/06/10 03:57:18;;;;;;;15.23;10.40;;;;;;;16.46;95.95;99485.03;12289522;19;20011;-84
2023/06/10 04:01:20;;;;;;;13.18;9.88;;;;;;;16.45;95.97;99486.13;12249597;19;20111;-84
2023/06/10 04:05:22;;;;;;;13.38;10.32;;;;;;;16.40;96.75;99492.59;12251483;19;20098;-85
2023/06/10 04:09:26;;;;;;;10.80;9.00;;;;;;;16.50;96.39;99488.84;12253232;19;20014;-84
2023/06/10 04:13:28;;;;;;;11.30;8.60;;;;;;;16.66;95.46;99501.47;12251580;19;20048;-85
2023/06/10 04:17:32;;;;;;;13.30;9.18;;;;;;;16.69;96.08;99500.84;12251400;19;20007;-83
2023/06/10 04:21:35;;;;;;;11.32;9.43;;;;;;;16.72;97.60;99507.78;12251164;19;20015;-84
2023/06/10 04:25:37;;;;;;;14.07;9.05;;;;;;;16.77;97.48;99503.00;12250169;19;20020;-84
2023/06/10 04:29:39;;;;;;;11.43;8.47;;;;;;;16.83;96.41;99501.78;12242141;19;20025;-86
2023/06/10 04:33:41;;;;;;;14.27;9.35;;;;;;;16.94;95.70;99498.88;12245129;19;20018;-84
2023/06/10 04:37:45;;;;;;;13.68;8.13;;;;;;;17.01;95.40;99497.41;12246049;19;20025;-81
2023/06/10 04:41:47;;;;;;;10.93;8.30;;;;;;;17.07;94.43;99500.91;12246750;19;20491;-82
2023/06/10 04:45:49;;;;;;;11.73;8.75;;;;;;;17.13;93.50;99494.13;12245892;19;20015;-82
2023/06/10 04:49:51;;;;;;;12.77;8.18;;;;;;;17.22;92.51;99500.72;12245746;19;20010;-82
2023/06/10 04:53:53;;;;;;;11.98;8.18;;;;;;;17.33;92.39;99501.38;12246530;19;20110;-83
2023/06/10 04:57:55;;;;;;;11.13;8.03;;;;;;;17.44;91.44;99499.25;12254180;19;20098;-83
2023/06/10 05:01:57;;;;;;;11.68;8.48;;;;;;;17.59;90.71;99498.19;12246221;19;20352;-82
2023/06/10 05:05:58;;;;;;;11.63;8.40;;;;;;;17.66;90.88;99505.00;12243854;19;20011;-82
2023/06/10 05:10:01;;;;;;;10.02;8.18;;;;;;;17.71;90.61;99509.69;12245525;19;20007;-82
2023/06/10 05:14:03;;;;;;;11.25;9.20;;;;;;;17.76;89.95;99510.41;12244444;19;20010;-82
2023/06/10 05:18:05;;;;;;;9.10;7.32;;;;;;;17.81;90.50;99514.28;12249138;19;20007;-83
2023/06/10 05:22:07;;;;;;;12.52;7.90;;;;;;;17.89;90.08;99516.38;12246726;19;20083;-85
2023/06/10 05:26:09;;;;;;;12.25;8.23;;;;;;;17.95;90.09;99515.16;12243354;19;20804;-84
2023/06/10 05:30:11;;;;;;;9.63;7.45;;;;;;;18.01;89.74;99522.28;12239458;19;20007;-84
2023/06/10 05:34:14;;;;;;;12.30;7.63;;;;;;;18.14;88.77;99524.25;12239944;19;20011;-84
2023/06/10 05:38:16;;;;;;;9.00;7.53;;;;;;;18.26;89.10;99525.72;12243451;19;20025;-85
2023/06/10 05:42:18;;;;;;;12.77;7.70;;;;;;;18.33;87.44;99524.19;12238848;19;20033;-84
2023/06/10 05:46:20;;;;;;;11.23;8.02;;;;;;;18.54;86.29;99533.00;12242128;19;20062;-85
2023/06/10 05:50:24;;;;;;;16.05;8.35;;;;;;;18.72;85.31;99534.03;12238950;19;20083;-81
2023/06/10 05:54:26;;;;;;;10.93;7.93;;;;;;;18.86;84.61;99534.06;12231836;19;20039;-86
2023/06/10 05:58:30;;;;;;;11.75;8.55;;;;;;;19.02;83.16;99537.34;12232496;19;20010;-86
2023/06/10 06:02:33;;;;;;;11.57;8.07;;;;;;;19.15;82.63;99532.84;12231526;19;20014;-84
2023/06/10 06:06:35;;;;;;;10.67;8.67;;;;;;;19.29;82.32;99540.06;12235981;19;20729;-82
2023/06/10 06:10:37;;;;;;;12.23;8.43;;;;;;;19.43;82.08;99539.22;12220192;19;20034;-82
2023/06/10 06:14:40;;;;;;;13.00;7.47;;;;;;;19.55;80.89;99534.72;12242098;19;20010;-82
2023/06/10 06:18:41;;;;;;;10.50;7.70;;;;;;;19.73;79.28;99540.47;12238460;19;20379;-82
2023/06/10 06:22:43;;;;;;;10.65;7.70;;;;;;;19.90;78.54;99539.75;12255598;19;20022;-83
2023/06/10 06:26:45;;;;;;;12.32;7.43;;;;;;;20.06;77.52;99540.19;12250749;19;20011;-85
2023/06/10 06:30:48;;;;;;;;;;;;;;;20.22;77.44;99542.25;12248689;19;20521;-84
2023/06/10 06:34:53;;;;;;;12.10;8.02;;;;;;;20.38;77.16;99548.28;12243911;19;19918;-85
2023/06/10 06:38:58;;;;;;;9.32;7.38;;;;;;;20.55;76.17;99538.34;12245098;19;20018;-84
2023/06/10 06:43:01;;;;;;;10.73;8.60;;;;;;;20.76;73.77;99535.78;12257135;19;20010;-85
2023/06/10 06:47:11;;;;;;;11.27;8.77;;;;;;;21.01;72.42;99540.63;12254310;19;20597;-84
2023/06/10 06:51:14;;;;;;;13.18;7.35;;;;;;;21.16;71.68;99539.34;12246792;19;20034;-85
2023/06/10 06:55:16;;;;;;;9.80;7.30;;;;;;;21.44;71.01;99544.69;12243435;19;20013;-84
2023/06/10 06:59:19;;;;;;;11.10;8.73;;;;;;;21.70;68.81;99542.69;12253444;19;20011;-85
2023/06/10 07:03:21;;;;;;;10.30;7.88;;;;;;;21.93;68.59;99545.34;12253756;19;20009;-83
2023/06/10 07:07:23;;;;;;;10.83;8.53;;;;;;;22.04;67.32;99552.22;12250525;19;20613;-84
2023/06/10 07:11:25;;;;;;;9.55;8.30;;;;;;;22.28;66.66;99555.38;12252146;19;20003;-83
2023/06/10 07:15:28;;;;;;;10.38;8.23;;;;;;;22.56;65.16;99554.94;12238901;19;20021;-83
2023/06/10 07:19:30;;;;;;;9.33;7.97;;;;;;;22.78;64.17;99558.63;12236104;19;20011;-86
2023/06/10 07:23:32;;;;;;;8.17;7.17;;;;;;;23.02;64.20;99558.88;12240370;19;20044;-82
2023/06/10 07:27:35;;;;;;;9.70;7.27;;;;;;;23.28;61.86;99566.31;12251471;19;20066;-82
2023/06/10 07:31:38;;;;;;;8.23;7.35;;;;;;;23.50;59.23;99565.16;12258364;19;20010;-84
2023/06/10 07:35:42;;;;;;;;;;;;;;;23.59;58.83;99566.78;12249688;19;20027;-83
2023/06/10 07:39:44;;;;;;;10.55;7.93;;;;;;;23.84;58.46;99569.72;12260635;19;19915;-83
2023/06/10 07:43:46;;;;;;;9.50;7.50;;;;;;;23.86;58.32;99559.78;12254544;19;20010;-84
2023/06/10 07:47:49;;;;;;;8.40;7.60;;;;;;;24.16;57.35;99567.28;12256405;19;20511;-84
2023/06/10 07:51:55;;;;;;;10.85;8.15;;;;;;;24.41;56.43;99570.97;12252581;19;20025;-85
2023/06/10 07:55:58;;;;;;;14.18;7.28;;;;;;;24.44;55.14;99565.50;12250476;19;20014;-82
2023/06/10 08:00:00;;;;;;;10.37;8.27;;;;;;;24.48;54.22;99568.44;12250386;19;20017;-83
2023/06/10 08:04:12;;;;;;;10.02;7.68;;;;;;;24.55;53.90;99566.69;12255294;19;20352;-82
2023/06/10 08:08:14;;;;;;;9.85;7.90;;;;;;;24.79;54.71;99563.09;12249622;19;20017;-84
2023/06/10 08:12:16;;;;;;;12.00;8.53;;;;;;;25.07;53.66;99570.03;12250866;19;20476;-82
2023/06/10 08:16:20;;;;;;;11.20;7.28;;;;;;;25.26;51.52;99564.66;12248420;19;20372;-83
2023/06/10 08:20:23;;;;;;;10.25;7.90;;;;;;;25.48;51.38;99571.75;12244979;19;20015;-83
2023/06/10 08:24:26;;;;;;;10.52;7.72;;;;;;;25.68;51.90;99569.97;12246143;19;20014;-82
2023/06/10 08:28:28;;;;;;;9.07;7.47;;;;;;;25.91;50.21;99575.91;12247124;19;20006;-82
2023/06/10 08:32:30;;;;;;;11.23;7.30;;;;;;;26.05;49.16;99579.13;12243288;19;20038;-80
2023/06/10 08:36:34;;;;;;;11.35;8.55;;;;;;;26.16;48.22;99570.16;12236887;19;20010;-82
2023/06/10 08:40:36;;;;;;;11.65;8.10;;;;;;;26.23;48.46;99574.00;12236369;19;21768;-81
2023/06/10 08:44:39;;;;;;;;;;;;;;;26.34;48.03;99572.28;12239769;19;20011;-82
2023/06/10 08:48:44;;;;;;;10.80;8.27;;;;;;;26.58;47.82;99579.00;12242049;19;19983;-82
2023/06/10 08:52:49;;;;;;;14.13;8.77;;;;;;;26.68;47.47;99561.53;12238701;19;20007;-81
2023/06/10 08:56:55;;;;;;;11.30;8.75;;;;;;;26.84;46.31;99569.19;12239336;19;20794;-82
2023/06/10 09:00:59;;;;;;;9.48;8.30;;;;;;;26.96;45.79;99567.06;12242723;19;20638;-84
2023/06/10 09:05:02;;;;;;;13.27;8.38;;;;;;;27.03;45.85;99555.13;12238181;19;20106;-80
2023/06/10 09:09:06;;;;;;;10.90;8.60;;;;;;;27.04;44.71;99559.59;12235114;19;20460;-82
2023/06/10 09:13:08;;;;;;;11.30;8.13;;;;;;;27.12;45.67;99561.38;12237380;19;20019;-82
2023/06/10 09:17:10;;;;;;;10.88;8.70;;;;;;;27.27;44.81;99549.25;12235535;19;20023;-79
2023/06/10 09:21:12;;;;;;;9.63;8.63;;;;;;;27.47;44.28;99549.31;12238437;19;20007;-82
2023/06/10 09:25:16;;;;;;;11.75;8.15;;;;;;;27.66;43.84;99549.34;12241387;19;20344;-80
2023/06/10 09:29:19;;;;;;;9.25;8.23;;;;;;;27.93;43.61;99541.00;12236327;19;20029;-81
2023/06/10 09:33:26;;;;;;;10.40;8.70;;;;;;;28.06;42.61;99539.66;12235247;19;20014;-82
2023/06/10 09:37:30;;;;;;;11.27;9.02;;;;;;;28.11;42.81;99538.53;12236570;19;20006;-83
2023/06/10 09:41:35;;;;;;;10.70;7.78;;;;;;;28.16;42.30;99536.22;12240974;19;20025;-84
2023/06/10 09:45:40;;;;;;;10.15;8.70;;;;;;;28.36;42.10;99539.84;12237755;19;20013;-84
2023/06/10 09:49:41;;;;;;;15.18;8.30;;;;;;;28.46;41.43;99529.91;12236218;19;20026;-83
2023/06/10 09:53:49;;;;;;;9.00;8.00;;;;;;;28.70;40.90;99539.25;12241686;19;20467;-81
2023/06/10 09:57:54;;;;;;;8.57;7.68;;;;;;;28.85;40.03;99533.44;12240462;19;20003;-81
2023/06/10 10:01:56;;;;;;;10.45;7.28;;;;;;;28.91;38.61;99518.94;12240126;19;20498;-81
2023/06/10 10:05:59;;;;;;;;;;;;;;;29.03;38.84;99516.75;12236078;19;20125;-80
2023/06/10 10:10:01;;;;;;;9.52;7.13;;;;;;;29.15;39.02;99517.72;12239628;19;19953;-79
2023/06/10 10:14:03;;;;;;;;;;;;;;;29.22;38.48;99515.00;12237644;19;20014;-84
2023/06/10 10:18:16;;;;;;;10.13;7.70;;;;;;;29.52;37.83;99515.81;12239145;19;19919;-81
2023/06/10 10:22:26;;;;;;;10.15;7.43;;;;;;;29.57;37.21;99513.84;12234102;19;20029;-82
2023/06/10 10:26:31;;;;;;;9.07;7.95;;;;;;;29.63;37.35;99518.03;12236858;19;20731;-82
2023/06/10 10:30:39;;;;;;;8.65;7.18;;;;;;;29.85;37.14;99500.03;12237974;19;20100;-81
2023/06/10 10:34:49;;;;;;;8.45;7.15;;;;;;;29.85;36.39;99508.56;12236720;19;20018;-81
2023/06/10 10:38:52;;;;;;;8.32;7.30;;;;;;;29.87;36.16;99491.97;12244747;19;20361;-83
2023/06/10 10:42:55;;;;;;;9.20;8.23;;;;;;;30.18;36.73;99492.69;12272464;19;20055;-82
2023/06/10 10:47:03;;;;;;;9.73;6.90;;;;;;;30.48;36.01;99491.78;12245543;19;20062;-82
2023/06/10 10:51:06;;;;;;;9.02;5.93;;;;;;;30.46;34.27;99488.50;12233528;19;20003;-81
2023/06/10 10:55:12;;;;;;;7.10;6.13;;;;;;;30.53;33.62;99480.06;12234053;19;20006;-82
2023/06/10 10:59:19;;;;;;;8.15;5.65;;;;;;;30.84;32.66;99485.22;12234665;19;20002;-82
2023/06/10 11:03:21;;;;;;;7.03;5.93;;;;;;;31.02;32.00;99473.97;12242229;19;20021;-81
2023/06/10 11:07:30;;;;;;;7.90;5.13;;;;;;;31.13;32.71;99473.22;12243731;19;20014;-81
2023/06/10 11:11:32;;;;;;;7.28;5.80;;;;;;;31.22;32.56;99479.38;12239388;19;20006;-81
2023/06/10 11:15:39;;;;;;;5.93;5.10;;;;;;;31.52;32.01;99465.72;12240923;19;20042;-82
2023/06/10 11:19:46;;;;;;;7.63;4.93;;;;;;;31.95;31.37;99467.97;12249579;19;20344;-81
2023/06/10 11:23:50;;;;;;;6.78;5.50;;;;;;;32.22;29.94;99469.25;12237413;19;20460;-83
2023/06/10 11:27:52;;;;;;;9.02;4.38;;;;;;;32.18;29.88;99462.69;12245588;19;20356;-81
2023/06/10 11:31:55;;;;;;;6.35;4.78;;;;;;;32.24;29.62;99457.41;12245193;19;20014;-82
2023/06/10 11:35:58;;;;;;;6.47;5.03;;;;;;;32.36;29.71;99465.56;12245972;19;20026;-81
2023/06/10 11:40:00;;;;;;;8.10;4.88;;;;;;;32.40;29.30;99472.09;12238630;19;20011;-80
2023/06/10 11:44:13;;;;;;;5.43;4.60;;;;;;;32.64;29.01;99467.66;12244120;19;20014;-80
2023/06/10 11:48:20;;;;;;;5.15;4.28;;;;;;;32.80;27.91;99452.16;12243418;19;20014;-82
2023/06/10 11:52:31;;;;;;;9.52;4.72;;;;;;;32.70;28.10;99441.59;12246585;19;20022;-81
2023/06/10 11:56:34;;;;;;;;;;;;;;;32.69;28.81;99463.56;12236968;19;20027;-80
2023/06/10 12:00:47;;;;;;;5.25;4.22;;;;;;;32.81;28.49;99454.63;12245961;19;19910;-80
2023/06/10 12:04:49;;;;;;;7.57;5.30;;;;;;;32.98;27.88;99435.84;12239891;19;20405;-79
2023/06/10 12:08:51;;;;;;;5.63;4.32;;;;;;;32.98;28.37;99447.25;12242058;19;20063;-81
2023/06/10 12:12:53;;;;;;;7.65;5.22;;;;;;;33.25;27.99;99433.31;12240775;19;20014;-79
2023/06/10 12:16:56;;;;;;;6.00;4.78;;;;;;;33.84;26.73;99429.03;12246693;19;20007;-78
2023/06/10 12:20:58;;;;;;;5.90;5.32;;;;;;;34.53;26.79;99422.41;12254485;19;20015;-80
2023/06/10 12:25:03;;;;;;;6.20;5.60;;;;;;;35.55;25.40;99432.47;12244164;19;20014;-79
2023/06/10 12:29:32;;;;;;;7.20;5.85;;;;;;;36.60;24.80;99435.44;12245974;19;20003;-77
2023/06/10 12:33:34;;;;;;;6.57;6.00;;;;;;;37.36;23.38;99421.28;12242049;19;20006;-78
2023/06/10 12:37:39;;;;;;;7.40;5.80;;;;;;;37.88;22.50;99432.13;12237706;19;20026;-80
2023/06/10 12:41:48;;;;;;;6.55;5.95;;;;;;;38.61;22.37;99424.25;12241817;19;20007;-79
2023/06/10 12:45:50;;;;;;;5.93;5.38;;;;;;;39.08;21.52;99417.25;12245709;19;20364;-79
2023/06/10 12:49:52;;;;;;;6.25;5.65;;;;;;;39.53;22.02;99425.03;12240131;19;20459;-79
2023/06/10 12:53:54;;;;;;;5.65;5.15;;;;;;;39.88;20.69;99434.72;12249309;19;20023;-79
2023/06/10 12:57:57;;;;;;;6.78;6.07;;;;;;;40.45;20.31;99427.09;12246896;19;20011;-80
2023/06/10 13:01:58;;;;;;;6.57;5.78;;;;;;;39.12;21.47;99429.50;12243937;19;20007;-81
2023/06/10 13:06:01;;;;;;;6.32;5.80;;;;;;;37.71;22.71;99422.63;12239354;19;20498;-80
2023/06/10 13:10:03;;;;;;;6.85;6.10;;;;;;;38.39;21.85;99415.34;12240230;19;20019;-80
2023/06/10 13:14:06;;;;;;;6.47;5.88;;;;;;;39.08;21.19;99411.50;12243478;19;20002;-83
2023/06/10 13:18:08;;;;;;;8.65;6.35;;;;;;;39.94;20.98;99408.97;12240543;19;20018;-83
2023/06/10 13:22:10;;;;;;;6.95;6.25;;;;;;;40.58;20.11;99417.63;12240324;19;20082;-84
2023/06/10 13:26:12;;;;;;;8.57;5.95;;;;;;;40.91;19.92;99400.81;12236845;19;20021;-81
2023/06/10 13:30:15;;;;;;;5.68;5.18;;;;;;;41.45;19.33;99406.22;12237936;19;20018;-80
2023/06/10 13:34:17;;;;;;;6.38;5.63;;;;;;;42.19;18.00;99400.88;12237277;19;20095;-83
2023/06/10 13:38:19;;;;;;;5.60;5.10;;;;;;;42.37;17.55;99408.84;12240387;19;20003;-85
2023/06/10 13:42:21;;;;;;;6.25;5.65;;;;;;;42.63;16.68;99392.03;12232163;19;20010;-82
2023/06/10 13:46:23;;;;;;;7.13;5.57;;;;;;;42.64;17.55;99389.94;12236527;19;20010;-82
2023/06/10 13:50:25;;;;;;;5.82;5.32;;;;;;;43.21;17.23;99381.63;12239059;19;20006;-80
2023/06/10 13:54:28;;;;;;;7.28;5.82;;;;;;;43.50;17.55;99381.09;12237078;19;20011;-82
2023/06/10 13:58:29;;;;;;;6.63;6.13;;;;;;;43.71;17.30;99376.38;12237667;19;20011;-82
2023/06/10 14:02:31;;;;;;;7.65;6.13;;;;;;;44.12;16.57;99374.78;12239058;19;20023;-83
2023/06/10 14:06:33;;;;;;;5.50;5.00;;;;;;;41.98;17.78;99382.31;12237207;19;20042;-82
2023/06/10 14:10:35;;;;;;;6.38;5.78;;;;;;;41.27;18.29;99385.06;12237511;19;20042;-84
2023/06/10 14:14:37;;;;;;;6.03;5.53;;;;;;;41.87;17.62;99374.03;12236763;19;20010;-82
2023/06/10 14:18:39;;;;;;;6.78;5.80;;;;;;;42.69;17.32;99361.13;12242848;19;20348;-82
2023/06/10 14:22:41;;;;;;;7.95;5.78;;;;;;;43.62;16.76;99367.72;12241768;19;20018;-80
2023/06/10 14:26:43;;;;;;;8.45;5.68;;;;;;;44.13;16.49;99372.69;12228808;19;20070;-82
2023/06/10 14:30:45;;;;;;;8.93;6.25;;;;;;;44.76;15.66;99355.38;12230478;19;20033;-80
2023/06/10 14:34:47;;;;;;;11.63;5.50;;;;;;;45.46;15.66;99352.00;12232503;19;20082;-81
2023/06/10 14:38:50;;;;;;;7.18;5.68;;;;;;;44.93;16.06;99341.22;12251169;19;20011;-79
2023/06/10 14:42:52;;;;;;;6.10;5.50;;;;;;;45.34;15.59;99341.47;12256956;19;20022;-81
2023/06/10 14:46:54;;;;;;;6.18;5.57;;;;;;;45.14;16.00;99348.78;12235355;19;20018;-80
2023/06/10 14:50:56;;;;;;;6.07;5.47;;;;;;;45.39;15.56;99352.41;12239579;19;20015;-82
2023/06/10 14:54:58;;;;;;;5.97;5.38;;;;;;;44.94;15.98;99348.63;12235513;19;20003;-81
2023/06/10 14:59:00;;;;;;;7.25;5.45;;;;;;;43.16;16.99;99344.56;12239893;19;20011;-81
2023/06/10 15:03:03;;;;;;;6.40;5.43;;;;;;;41.41;17.77;99344.88;12237523;19;20011;-81
2023/06/10 15:07:05;;;;;;;7.05;5.45;;;;;;;41.20;18.06;99339.88;12234438;19;20029;-80
2023/06/10 15:11:06;;;;;;;5.75;5.15;;;;;;;41.73;17.91;99339.09;12237190;19;20010;-81
2023/06/10 15:15:09;;;;;;;5.45;4.95;;;;;;;42.32;17.84;99334.19;12233727;19;20014;-81
2023/06/10 15:19:11;;;;;;;5.18;4.68;;;;;;;42.36;16.88;99328.25;12236566;19;20014;-83
2023/06/10 15:23:14;;;;;;;6.97;5.15;;;;;;;40.80;17.91;99331.88;12235264;19;20023;-83
2023/06/10 15:27:17;;;;;;;9.13;5.32;;;;;;;39.00;19.97;99333.13;12226161;19;20021;-82
2023/06/10 15:31:19;;;;;;;6.30;5.70;;;;;;;37.39;21.46;99335.03;12235116;19;20006;-82
2023/06/10 15:35:21;;;;;;;6.53;5.75;;;;;;;36.15;22.26;99339.03;12231352;19;20022;-80
2023/06/10 15:39:24;;;;;;;6.03;5.50;;;;;;;35.07;22.99;99316.00;12233992;19;20348;-82
2023/06/10 15:43:26;;;;;;;6.03;5.40;;;;;;;34.16;24.05;99326.72;12236941;19;20006;-81
2023/06/10 15:47:28;;;;;;;7.13;5.10;;;;;;;33.50;24.30;99319.00;12238567;19;20031;-80
2023/06/10 15:51:30;;;;;;;7.03;5.32;;;;;;;33.15;25.16;99311.44;12248168;19;20018;-81
2023/06/10 15:55:33;;;;;;;8.32;5.32;;;;;;;32.89;25.63;99318.44;12243092;19;20029;-81
2023/06/10 15:59:35;;;;;;;6.45;5.82;;;;;;;32.51;26.37;99312.41;12247111;19;20011;-81
2023/06/10 16:03:38;;;;;;;6.15;4.85;;;;;;;32.11;26.82;99308.78;12246254;19;20019;-81
2023/06/10 16:07:40;;;;;;;4.93;4.38;;;;;;;31.76;27.30;99306.72;12244985;19;20038;-81
2023/06/10 16:11:42;;;;;;;5.90;4.82;;;;;;;31.61;27.38;99294.50;12246926;19;20019;-83
2023/06/10 16:15:44;;;;;;;7.30;4.78;;;;;;;31.41;27.95;99304.63;12243203;19;20010;-81
2023/06/10 16:19:46;;;;;;;5.70;4.65;;;;;;;31.20;28.33;99300.47;12243724;19;20022;-81
2023/06/10 16:23:48;;;;;;;;;;;;;;;31.43;28.22;99305.03;12249831;19;20006;-80
2023/06/10 16:27:50;;;;;;;7.00;5.18;;;;;;;31.32;28.43;99297.25;12241875;19;19915;-80
2023/06/10 16:31:52;;;;;;;5.15;4.18;;;;;;;31.03;28.97;99299.19;12254622;19;20007;-81
2023/06/10 16:35:55;;;;;;;6.18;5.00;;;;;;;30.88;29.90;99300.38;12243834;19;20011;-80
2023/06/10 16:39:57;;;;;;;5.60;4.50;;;;;;;30.76;29.28;99298.66;12243986;19;20022;-81
2023/06/10 16:43:59;;;;;;;5.35;4.22;;;;;;;30.57;29.59;99308.28;12242913;19;20010;-81
2023/06/10 16:48:06;;;;;;;8.13;4.88;;;;;;;30.52;29.72;99299.31;12251495;19;20017;-81
2023/06/10 16:52:08;;;;;;;6.10;4.50;;;;;;;30.43;30.27;99302.53;12248835;19;20006;-81
2023/06/10 16:56:09;;;;;;;5.45;4.70;;;;;;;30.26;30.28;99294.69;12244957;19;20094;-81
2023/06/10 17:00:12;;;;;;;;;;;;;;;30.17;29.94;99300.69;12244833;19;20441;-82
2023/06/10 17:04:16;;;;;;;12.85;4.40;;;;;;;30.14;30.32;99307.97;12242127;19;19926;-82
2023/06/10 17:08:18;;;;;;;5.18;4.20;;;;;;;30.22;31.14;99317.38;12246858;19;20011;-85
2023/06/10 17:12:21;;;;;;;5.45;3.97;;;;;;;30.28;31.70;99317.81;12241778;19;20082;-82
2023/06/10 17:16:23;;;;;;;5.22;4.03;;;;;;;30.14;32.30;99329.88;12240351;19;20401;-81
2023/06/10 17:20:26;;;;;;;7.60;4.28;;;;;;;29.98;32.48;99330.97;12236837;19;20049;-81
2023/06/10 17:24:30;;;;;;;5.40;4.85;;;;;;;29.67;32.97;99346.50;12237039;19;20589;-81
2023/06/10 17:28:32;;;;;;;;;;;;;;;29.45;33.49;99345.44;12236289;19;20021;-81
2023/06/10 17:32:36;;;;;;;7.05;4.57;;;;;;;29.24;34.19;99348.00;12236333;19;19911;-80
2023/06/10 17:36:38;;;;;;;6.75;4.38;;;;;;;29.20;34.51;99355.66;12235463;19;20070;-80
2023/06/10 17:40:40;;;;;;;5.30;4.80;;;;;;;29.04;35.05;99353.03;12233583;19;20070;-82
2023/06/10 17:44:42;;;;;;;5.10;4.40;;;;;;;28.81;36.03;99368.09;12235860;19;20010;-81
2023/06/10 17:48:44;;;;;;;5.25;4.60;;;;;;;28.61;36.51;99364.56;12241600;19;20014;-82
2023/06/10 17:52:45;;;;;;;7.47;5.18;;;;;;;28.45;37.38;99378.09;12236100;19;20459;-81
2023/06/10 17:56:47;;;;;;;8.50;4.93;;;;;;;28.30;37.59;99377.00;12232197;19;20614;-81
2023/06/10 18:00:49;;;;;;;6.05;4.90;;;;;;;28.16;38.56;99391.75;12229913;19;20009;-81
2023/06/10 18:04:51;;;;;;;6.78;5.10;;;;;;;28.01;39.21;99392.69;12234118;19;20437;-82
2023/06/10 18:08:53;;;;;;;7.28;5.90;;;;;;;27.88;39.76;99394.91;12239292;19;20467;-82
2023/06/10 18:12:55;;;;;;;7.00;5.45;;;;;;;27.69;41.60;99387.25;12240566;19;20401;-80
2023/06/10 18:16:56;;;;;;;8.77;6.00;;;;;;;27.48;42.30;99396.16;12236451;19;20027;-81
2023/06/10 18:20:58;;;;;;;7.53;6.72;;;;;;;27.25;42.96;99398.09;12235951;19;20006;-82
2023/06/10 18:25:04;;;;;;;9.95;7.05;;;;;;;26.97;44.29;99401.88;12240322;19;20006;-83
2023/06/10 18:29:06;;;;;;;8.82;6.25;;;;;;;26.71;45.22;99408.19;12236608;19;20010;-81
2023/06/10 18:33:09;;;;;;;8.82;7.00;;;;;;;26.48;45.98;99407.19;12234070;19;20011;-82
2023/06/10 18:37:11;;;;;;;7.95;6.60;;;;;;;26.26;46.92;99415.09;12230782;19;20019;-81
2023/06/10 18:41:13;;;;;;;9.95;7.07;;;;;;;26.05;48.53;99428.69;12236886;19;20007;-81
2023/06/10 18:45:14;;;;;;;9.25;7.03;;;;;;;25.90;48.74;99425.47;12237481;19;20018;-81
2023/06/10 18:49:17;;;;;;;9.75;6.60;;;;;;;25.72;49.63;99432.59;12237082;19;20011;-81